createdAt,value
2023-05-03T05:04:19.848Z,71.43
2023-05-03T05:09:26.823Z,71.66
2023-05-03T05:14:32.517Z,70.34
2023-05-03T05:19:38.278Z,70.43
2023-05-03T05:24:40.208Z,70.26
2023-05-03T05:29:43.541Z,69.11
2023-05-03T05:34:49.151Z,68.98
2023-05-03T05:39:52.772Z,68.60
2023-05-03T05:44:57.397Z,69.27
2023-05-03T05:50:15.000Z,68.43
2023-05-03T05:55:29.843Z,68.61
2023-05-03T06:00:36.156Z,68.32
2023-05-03T06:05:38.033Z,68.05
2023-05-03T06:10:40.396Z,67.64
2023-05-03T06:15:44.957Z,67.93
2023-05-03T06:20:50.225Z,66.79
2023-05-03T06:25:52.789Z,66.82
2023-05-03T06:31:01.100Z,67.30
2023-05-03T06:36:05.298Z,66.33
2023-05-03T06:41:12.760Z,66.40
2023-05-03T06:46:19.622Z,66.97
2023-05-03T06:51:30.064Z,67.08
2023-05-03T06:56:34.349Z,66.48
2023-05-03T07:01:41.535Z,66.38
2023-05-03T07:06:55.862Z,66.17
2023-05-03T07:12:03.661Z,65.92
2023-05-03T07:17:05.156Z,65.39
2023-05-03T07:22:10.092Z,64.42
2023-05-03T07:27:11.515Z,64.75
2023-05-03T07:32:18.809Z,64.61
2023-05-03T07:37:21.150Z,62.99
2023-05-03T07:42:25.551Z,63.62
2023-05-03T07:47:27.800Z,62.50
2023-05-03T07:52:29.252Z,62.77
2023-05-03T07:57:31.023Z,62.34
2023-05-03T08:02:38.360Z,62.27
2023-05-03T08:07:40.129Z,62.26
2023-05-03T08:12:41.899Z,61.76
2023-05-03T08:17:53.077Z,61.18
2023-05-03T08:22:57.482Z,60.80
2023-05-03T08:27:59.380Z,60.48
2023-05-03T08:33:03.529Z,60.88
2023-05-03T08:38:11.329Z,61.05
2023-05-03T08:43:18.657Z,60.99
2023-05-03T08:48:23.939Z,60.28
2023-05-03T08:53:25.610Z,59.88
2023-05-03T08:58:27.023Z,60.17
2023-05-03T09:03:35.514Z,59.92
2023-05-03T09:08:43.230Z,59.16
2023-05-03T09:13:44.706Z,59.41
2023-05-03T09:19:00.169Z,58.27
2023-05-03T09:24:58.207Z,58.85
2023-05-03T09:30:19.410Z,59.15
2023-05-03T09:35:21.003Z,58.54
2023-05-03T09:40:29.317Z,57.86
2023-05-03T09:45:31.390Z,58.45
2023-05-03T09:50:33.830Z,58.44
2023-05-03T09:55:39.766Z,57.76
2023-05-03T10:00:50.275Z,58.12
2023-05-03T10:05:56.370Z,58.33
2023-05-03T10:11:07.980Z,57.30
2023-05-03T10:16:15.027Z,57.69
2023-05-03T10:21:32.057Z,57.68
2023-05-03T10:26:36.513Z,57.29
2023-05-03T10:31:46.971Z,56.68
2023-05-03T10:36:55.488Z,57.43
2023-05-03T10:42:09.105Z,56.30
2023-05-03T10:47:17.776Z,56.71
2023-05-03T10:52:41.464Z,56.71
2023-05-03T10:57:46.772Z,56.17
2023-05-03T11:03:14.888Z,56.57
2023-05-03T11:08:21.825Z,56.82
2023-05-03T11:13:29.498Z,57.22
2023-05-03T11:18:49.669Z,55.52
2023-05-03T11:24:04.466Z,56.68
2023-05-03T11:29:22.454Z,56.58
2023-05-03T11:34:35.753Z,56.50
2023-05-03T11:39:47.790Z,55.82
2023-05-03T11:44:56.214Z,57.53
2023-05-03T11:50:27.423Z,56.37
2023-05-03T11:55:30.402Z,56.99
2023-05-03T12:00:33.315Z,56.54
2023-05-03T12:06:00.122Z,55.68
2023-05-03T12:11:15.231Z,55.63
2023-05-03T12:16:28.579Z,55.89
2023-05-03T12:21:59.233Z,54.62
2023-05-03T12:27:19.026Z,56.12
2023-05-03T12:32:25.590Z,56.71
2023-05-03T12:37:49.637Z,55.35
2023-05-03T12:43:01.516Z,56.23
2023-05-03T12:53:38.509Z,55.42
2023-05-03T12:59:12.064Z,55.29
2023-05-03T13:10:12.241Z,53.42
2023-05-03T13:15:08.142Z,49.46
2023-05-03T13:20:15.711Z,46.95
2023-05-03T13:25:23.233Z,43.71
2023-05-03T13:30:30.775Z,43.02
2023-05-03T13:35:42.306Z,42.66
2023-05-03T13:46:43.512Z,42.12
2023-05-03T13:58:03.835Z,43.61
2023-05-03T14:03:15.805Z,45.34
2023-05-03T14:08:41.471Z,45.75
2023-05-03T14:14:20.687Z,46.06
2023-05-03T14:19:24.855Z,46.86
2023-05-03T14:24:29.675Z,47.18
2023-05-03T14:30:28.853Z,46.67
2023-05-03T14:35:59.866Z,46.81
2023-05-03T14:41:37.652Z,47.24
2023-05-03T14:47:15.553Z,46.10
2023-05-03T14:52:36.128Z,44.95
2023-05-03T14:57:40.484Z,45.90
2023-05-03T15:03:16.594Z,45.18
2023-05-03T15:14:31.652Z,43.61
2023-05-03T15:19:52.580Z,44.09
2023-05-03T15:31:17.232Z,45.47
2023-05-03T15:36:47.307Z,46.40
2023-05-03T15:42:04.199Z,46.97
2023-05-03T15:47:24.192Z,46.52
2023-05-03T15:53:24.472Z,47.54
2023-05-03T15:59:05.574Z,48.04
2023-05-03T16:10:27.344Z,48.07
2023-05-03T16:15:52.402Z,48.68
2023-05-03T16:27:05.551Z,48.97
2023-05-03T16:32:40.697Z,48.76
2023-05-03T16:38:31.460Z,47.00
2023-05-03T16:44:12.231Z,44.43
2023-05-03T16:50:35.988Z,44.88
2023-05-03T16:56:05.656Z,45.83
2023-05-03T17:01:41.395Z,47.11
2023-05-03T17:08:01.679Z,48.06
2023-05-03T17:20:05.318Z,50.64
2023-05-03T17:37:28.701Z,52.39
2023-05-03T17:56:06.020Z,54.20
2023-05-03T18:02:46.944Z,54.59
2023-05-03T18:15:16.144Z,55.40
2023-05-03T18:21:25.771Z,55.54
2023-05-03T18:45:22.808Z,57.41
2023-05-03T18:51:05.463Z,57.60
2023-05-03T18:57:13.435Z,57.49
2023-05-03T19:08:57.771Z,58.57
2023-05-03T19:14:56.443Z,58.59
2023-05-03T19:26:45.438Z,59.02
2023-05-03T19:31:56.052Z,59.16
2023-05-03T19:37:44.383Z,58.74
2023-05-03T19:43:14.308Z,58.96
2023-05-03T19:49:05.584Z,59.21
2023-05-03T19:54:40.987Z,59.83
2023-05-03T20:06:38.338Z,60.35
2023-05-03T20:17:44.502Z,61.04
2023-05-03T20:29:26.622Z,61.97
2023-05-03T20:34:51.648Z,62.30
2023-05-03T20:40:17.957Z,62.36
2023-05-03T20:45:35.529Z,62.62
2023-05-03T20:50:46.471Z,62.20
2023-05-03T20:56:15.626Z,62.73
2023-05-03T21:01:40.767Z,62.99
2023-05-03T21:06:45.528Z,63.11
2023-05-03T21:11:46.990Z,63.11
2023-05-03T21:16:51.153Z,63.66
2023-05-03T21:21:53.325Z,63.39
2023-05-03T21:26:58.753Z,63.93
2023-05-03T21:32:00.400Z,63.93
2023-05-03T21:37:05.476Z,63.52
2023-05-03T21:42:07.003Z,64.25
2023-05-03T21:47:11.480Z,64.08
2023-05-03T21:52:16.495Z,64.84
2023-05-03T21:57:18.869Z,64.78
